Time;durP1;ratioP1;P1;durP2;ratioP2;P2;SDS_P1;SDS_P2;PMS_P1;PMS_P2;Temp;Humidity;BMP_temperature;BMP_pressure;BME280_temperature;BME280_humidity;BME280_pressure;Samples;Min_cycle;Max_cycle;Signal;HPM_P1;HPM_P2
2023/10/23 00:00:22;;;;;;;12.18;7.55;;;;;;;;;;5073526;28;20020;-48
2023/10/23 00:02:48;;;;;;;10.60;7.22;;;;;;;;;;5073783;28;20028;-47
2023/10/23 00:05:14;;;;;;;10.93;6.80;;;;;;;;;;5073623;28;20036;-46
2023/10/23 00:07:40;;;;;;;9.60;6.82;;;;;;;;;;5065706;28;20137;-46
2023/10/23 00:10:07;;;;;;;13.20;7.78;;;;;;;;;;5072346;28;20025;-46
2023/10/23 00:12:33;;;;;;;10.70;7.22;;;;;;;;;;5069868;28;20035;-47
2023/10/23 00:14:59;;;;;;;10.35;7.60;;;;;;;;;;5053849;28;20021;-49
2023/10/23 00:17:25;;;;;;;13.95;7.80;;;;;;;;;;5072734;28;20168;-52
2023/10/23 00:19:51;;;;;;;16.83;7.78;;;;;;;;;;5072078;28;20463;-48
2023/10/23 00:22:17;;;;;;;9.68;7.40;;;;;;;;;;5073329;28;20032;-50
2023/10/23 00:24:43;;;;;;;11.00;8.18;;;;;;;;;;5073178;28;20029;-51
2023/10/23 00:27:09;;;;;;;10.52;7.93;;;;;;;;;;5059190;28;20031;-48
2023/10/23 00:29:35;;;;;;;9.60;6.82;;;;;;;;;;5073285;28;20020;-49
2023/10/23 00:32:01;;;;;;;7.72;6.97;;;;;;;;;;5072860;28;20049;-47
2023/10/23 00:34:30;;;;;;;10.40;7.60;;;;;;;;;;5072970;28;20048;-48
2023/10/23 00:36:56;;;;;;;9.70;7.65;;;;;;;;;;5073281;28;20089;-48
2023/10/23 00:39:22;;;;;;;10.60;7.88;;;;;;;;;;5072960;28;20455;-46
2023/10/23 00:41:48;;;;;;;9.05;7.60;;;;;;;;;;5073064;28;20028;-46
2023/10/23 00:44:14;;;;;;;10.15;8.15;;;;;;;;;;5058834;28;20044;-53
2023/10/23 00:46:40;;;;;;;13.32;7.90;;;;;;;;;;5072922;28;20047;-46
2023/10/23 00:49:07;;;;;;;8.90;7.18;;;;;;;;;;5073036;28;20025;-48
2023/10/23 00:51:33;;;;;;;11.70;7.32;;;;;;;;;;5072642;28;20028;-48
2023/10/23 00:53:59;;;;;;;9.25;7.22;;;;;;;;;;5072911;28;20024;-47
2023/10/23 00:56:25;;;;;;;7.85;7.05;;;;;;;;;;5068969;28;20494;-47
2023/10/23 00:58:51;;;;;;;8.85;7.28;;;;;;;;;;5063951;28;20028;-48
2023/10/23 01:01:17;;;;;;;8.82;7.40;;;;;;;;;;5072699;28;20405;-47
2023/10/23 01:03:44;;;;;;;10.80;7.63;;;;;;;;;;5072727;28;20032;-49
2023/10/23 01:06:10;;;;;;;9.60;7.88;;;;;;;;;;5068468;28;20024;-51
2023/10/23 01:08:36;;;;;;;14.02;7.90;;;;;;;;;;5069653;28;20036;-47
2023/10/23 01:11:02;;;;;;;8.63;7.35;;;;;;;;;;5070766;28;20052;-52
2023/10/23 01:13:28;;;;;;;10.38;7.68;;;;;;;;;;5071644;28;20437;-46
2023/10/23 01:15:55;;;;;;;10.73;8.18;;;;;;;;;;5071925;28;20064;-48
2023/10/23 01:18:21;;;;;;;10.25;8.10;;;;;;;;;;5057621;28;20028;-50
2023/10/23 01:20:48;;;;;;;8.98;7.30;;;;;;;;;;5072404;28;20045;-49
2023/10/23 01:23:14;;;;;;;13.75;8.10;;;;;;;;;;5071465;28;20027;-48
2023/10/23 01:25:40;;;;;;;11.68;7.63;;;;;;;;;;5071473;28;20182;-47
2023/10/23 01:28:06;;;;;;;12.60;8.35;;;;;;;;;;5071421;28;20016;-48
2023/10/23 01:30:33;;;;;;;10.93;8.15;;;;;;;;;;5063692;28;20047;-47
2023/10/23 01:32:59;;;;;;;12.25;7.93;;;;;;;;;;5052567;28;20036;-47
2023/10/23 01:35:25;;;;;;;16.60;8.18;;;;;;;;;;5051760;28;20078;-51
2023/10/23 01:37:51;;;;;;;10.95;7.57;;;;;;;;;;5071131;28;20063;-52
2023/10/23 01:40:18;;;;;;;10.90;8.15;;;32.60;1.00;;;;;;5071195;28;20055;-50
2023/10/23 01:42:44;;;;;;;10.82;7.65;;;32.20;1.00;;;;;;5056701;28;20494;-51
2023/10/23 01:45:10;;;;;;;8.80;7.53;;;32.10;1.00;;;;;;5069194;28;20020;-47
2023/10/23 01:47:36;;;;;;;8.85;7.63;;;32.10;1.00;;;;;;5069411;28;20036;-48
2023/10/23 01:50:02;;;;;;;11.00;7.07;;;32.10;1.00;;;;;;5071057;28;20024;-47
2023/10/23 01:52:30;;;;;;;12.10;7.68;;;32.10;1.00;;;;;;5062928;28;20422;-49
2023/10/23 01:54:55;;;;;;;9.68;7.30;;;32.10;1.00;;;;;;5065210;28;20028;-47
2023/10/23 01:57:21;;;;;;;9.88;7.55;;;32.10;1.00;;;;;;5071414;28;20424;-47
2023/10/23 01:59:46;;;;;;;9.88;7.25;;;32.10;1.00;;;;;;5071276;28;20416;-48
2023/10/23 02:02:12;;;;;;;9.45;7.55;;;32.10;1.00;;;;;;5051115;28;20104;-49
2023/10/23 02:04:39;;;;;;;10.90;7.05;;;32.10;1.00;;;;;;5055859;28;20025;-46
2023/10/23 02:07:05;;;;;;;11.57;6.75;;;32.10;1.00;;;;;;5053157;28;20071;-47
2023/10/23 02:09:31;;;;;;;8.07;6.43;;;32.10;1.00;;;;;;5070884;28;20062;-47
2023/10/23 02:11:57;;;;;;;12.68;6.85;;;32.10;1.00;;;;;;5071102;28;20020;-47
2023/10/23 02:14:23;;;;;;;9.85;6.45;;;32.10;1.00;;;;;;5071123;28;20037;-52
2023/10/23 02:16:48;;;;;;;9.65;6.88;;;32.10;1.00;;;;;;5064100;28;20043;-46
2023/10/23 02:19:14;;;;;;;11.18;6.07;;;32.10;1.00;;;;;;5067545;28;20036;-46
2023/10/23 02:21:40;;;;;;;8.18;5.90;;;32.10;1.00;;;;;;5061530;28;20177;-46
2023/10/23 02:24:05;;;;;;;9.32;5.82;;;32.10;1.00;;;;;;5069429;28;20028;-46
2023/10/23 02:26:32;;;;;;;8.00;5.78;;;32.10;1.00;;;;;;5052934;28;20037;-46
2023/10/23 02:28:57;;;;;;;8.75;5.50;;;32.10;1.00;;;;;;5064081;28;20033;-47
2023/10/23 02:31:23;;;;;;;8.95;5.72;;;32.20;1.00;;;;;;5068621;28;20493;-49
2023/10/23 02:33:59;;;;;;;8.05;5.93;;;32.20;1.00;;;;;;5065180;28;20131;-48
2023/10/23 02:36:26;;;;;;;9.05;5.95;;;32.20;1.00;;;;;;5070149;28;20074;-49
2023/10/23 02:38:52;;;;;;;5.85;5.13;;;32.20;1.00;;;;;;5056851;28;20053;-48
2023/10/23 02:41:18;;;;;;;6.30;5.53;;;32.10;1.00;;;;;;5067750;28;20484;-47
2023/10/23 02:43:43;;;;;;;8.55;5.57;;;32.10;1.00;;;;;;5035017;28;20032;-46
2023/10/23 02:46:09;;;;;;;10.90;5.45;;;32.10;1.00;;;;;;5067447;28;20103;-48
2023/10/23 02:48:53;;;;;;;8.68;5.32;;;32.10;1.00;;;;;;5071271;28;20035;-49
2023/10/23 02:51:19;;;;;;;7.28;5.45;;;32.10;1.00;;;;;;5071314;28;20028;-50
2023/10/23 02:53:49;;;;;;;8.30;5.35;;;32.10;1.00;;;;;;5071070;28;20028;-46
2023/10/23 02:56:15;;;;;;;9.10;5.90;;;32.10;1.00;;;;;;5074585;28;20505;-48
2023/10/23 02:58:40;;;;;;;8.23;5.63;;;32.10;1.00;;;;;;5075178;28;20024;-47
2023/10/23 03:01:18;;;;;;;7.47;5.25;;;32.10;1.00;;;;;;5060677;28;20038;-46
2023/10/23 03:03:44;;;;;;;8.75;6.13;;;32.10;1.00;;;;;;5074907;28;20071;-46
2023/10/23 03:06:10;;;;;;;9.98;5.65;;;32.10;1.00;;;;;;5074744;28;20052;-46
2023/10/23 03:08:37;;;;;;;7.45;5.82;;;32.10;1.00;;;;;;5064246;28;20079;-46
2023/10/23 03:11:02;;;;;;;8.15;5.28;;;32.10;1.00;;;;;;5068961;28;20437;-47
2023/10/23 03:13:28;;;;;;;8.02;5.28;;;32.10;1.00;;;;;;5055147;28;20029;-45
2023/10/23 03:15:54;;;;;;;9.18;5.63;;;32.10;1.00;;;;;;5069311;28;20020;-46
2023/10/23 03:18:20;;;;;;;11.82;6.43;;;32.10;1.00;;;;;;5071906;28;20501;-47
2023/10/23 03:20:45;;;;;;;10.68;7.70;;;32.10;1.00;;;;;;5056818;28;20052;-50
2023/10/23 03:23:11;;;;;;;9.40;5.97;;;32.10;1.00;;;;;;5074502;28;20043;-48
2023/10/23 03:25:36;;;;;;;7.32;6.18;;;32.00;1.00;;;;;;5056460;28;20032;-50
2023/10/23 03:28:02;;;;;;;8.73;6.15;;;32.10;1.00;;;;;;5074457;28;20052;-47
2023/10/23 03:30:28;;;;;;;6.68;5.55;;;32.10;1.00;;;;;;5074395;28;20474;-49
2023/10/23 03:32:53;;;;;;;10.82;5.97;;;32.10;1.00;;;;;;5073874;28;20482;-47
2023/10/23 03:35:19;;;;;;;7.28;5.68;;;32.10;1.00;;;;;;5074175;28;20020;-46
2023/10/23 03:37:45;;;;;;;8.15;5.35;;;32.10;1.00;;;;;;5074253;28;20036;-49
2023/10/23 03:40:12;;;;;;;7.20;5.43;;;32.10;1.00;;;;;;5074192;28;20378;-49
2023/10/23 03:42:38;;;;;;;11.35;5.50;;;32.10;1.00;;;;;;5064582;28;20090;-47
2023/10/23 03:45:04;;;;;;;6.55;5.70;;;32.10;1.00;;;;;;5051836;28;20494;-47
2023/10/23 03:47:30;;;;;;;7.82;5.30;;;32.10;1.00;;;;;;5074275;28;20032;-47
2023/10/23 03:49:56;;;;;;;8.90;5.75;;;32.10;1.00;;;;;;5060241;28;20483;-46
2023/10/23 03:52:21;;;;;;;5.72;5.10;;;32.10;1.00;;;;;;5073716;28;20024;-47
2023/10/23 03:54:47;;;;;;;8.15;5.72;;;32.00;1.00;;;;;;5073790;28;20119;-46
2023/10/23 03:57:12;;;;;;;6.78;5.20;;;32.00;1.00;;;;;;5073280;28;20066;-48
2023/10/23 03:59:41;;;;;;;8.73;5.10;;;32.00;1.00;;;;;;5073787;28;20425;-48
2023/10/23 04:02:07;;;;;;;9.75;6.05;;;32.10;1.00;;;;;;5057560;28;20121;-48
2023/10/23 04:04:33;;;;;;;9.40;5.15;;;32.00;1.00;;;;;;5061832;28;20060;-46
2023/10/23 04:06:58;;;;;;;8.23;5.45;;;32.00;1.00;;;;;;5072813;28;20024;-46
2023/10/23 04:09:24;;;;;;;5.68;4.75;;;32.00;1.00;;;;;;5058300;28;20076;-46
2023/10/23 04:11:49;;;;;;;6.88;4.60;;;32.00;1.00;;;;;;5073614;28;20062;-46
2023/10/23 04:14:15;;;;;;;5.88;4.85;;;32.00;1.00;;;;;;5055503;28;20079;-46
2023/10/23 04:16:42;;;;;;;10.80;5.28;;;32.00;1.00;;;;;;5072997;28;20032;-47
2023/10/23 04:19:08;;;;;;;7.57;5.40;;;32.00;1.00;;;;;;5069478;28;20016;-49
2023/10/23 04:21:38;;;;;;;7.35;4.70;;;32.00;1.00;;;;;;5065266;28;20429;-47
2023/10/23 06:05:23;;;;;;;8.38;5.75;;;31.80;1.00;;;;;;5061636;28;20048;-52
2023/10/23 06:11:11;;;;;;;9.15;5.82;;;31.90;1.00;;;;;;5058033;28;20059;-47
2023/10/23 06:13:37;;;;;;;8.85;5.25;;;31.80;1.00;;;;;;5069238;28;20095;-48
2023/10/23 06:16:07;;;;;;;6.97;5.05;;;31.90;1.00;;;;;;5070797;28;20040;-48
2023/10/23 06:18:34;;;;;;;7.38;5.72;;;31.80;1.00;;;;;;5065126;28;20372;-49
2023/10/23 06:21:03;;;;;;;8.10;5.57;;;31.80;1.00;;;;;;5066850;28;20032;-48
2023/10/23 06:23:33;;;;;;;9.10;5.20;;;31.90;1.00;;;;;;5067510;28;20028;-48
2023/10/23 06:25:59;;;;;;;7.75;5.68;;;31.90;1.00;;;;;;5066700;28;20020;-50
2023/10/23 06:28:28;;;;;;;8.73;5.32;;;31.90;1.00;;;;;;5060849;28;20102;-51
2023/10/23 06:30:53;;;;;;;10.10;6.00;;;31.90;1.00;;;;;;5054796;28;20562;-51
2023/10/23 06:33:25;;;;;;;11.82;6.22;;;32.00;1.00;;;;;;5068897;28;20032;-52
2023/10/23 06:35:58;;;;;;;10.35;5.63;;;32.00;1.00;;;;;;5063346;28;20196;-50
2023/10/23 06:38:23;;;;;;;7.90;4.82;;;32.00;1.00;;;;;;5061590;28;20114;-50
2023/10/23 06:40:49;;;;;;;7.38;4.60;;;31.90;1.00;;;;;;5057241;28;20482;-49
2023/10/23 06:43:14;;;;;;;10.25;4.57;;;31.90;1.00;;;;;;5060322;28;20025;-48
2023/10/23 06:45:40;;;;;;;8.73;4.22;;;32.00;1.00;;;;;;5059688;28;20504;-48
2023/10/23 06:48:06;;;;;;;6.32;4.45;;;32.00;1.00;;;;;;5067841;28;20041;-48
2023/10/23 06:50:31;;;;;;;10.30;5.68;;;32.00;1.00;;;;;;5061387;28;20052;-49
2023/10/23 06:52:57;;;;;;;8.73;4.78;;;32.00;1.00;;;;;;5072651;28;20040;-50
2023/10/23 06:55:24;;;;;;;12.15;4.57;;;32.10;1.00;;;;;;5073536;28;20096;-49
2023/10/23 06:57:50;;;;;;;8.38;5.28;;;32.10;1.00;;;;;;5066584;28;20043;-50
2023/10/23 07:00:16;;;;;;;8.77;5.32;;;32.00;1.00;;;;;;5074417;28;20021;-51
2023/10/23 07:02:41;;;;;;;7.55;4.75;;;32.00;1.00;;;;;;5063995;28;20392;-51
2023/10/23 07:05:07;;;;;;;11.50;4.97;;;32.10;1.00;;;;;;5039575;28;20024;-48
2023/10/23 07:07:33;;;;;;;7.80;5.03;;;32.10;1.00;;;;;;5063890;28;20040;-48
2023/10/23 07:09:59;;;;;;;10.00;5.10;;;32.10;1.00;;;;;;5057365;28;20487;-47
2023/10/23 07:12:25;;;;;;;8.55;5.05;;;32.10;1.00;;;;;;5066595;28;20039;-50
2023/10/23 07:14:51;;;;;;;8.70;4.55;;;32.10;1.00;;;;;;5064233;28;20478;-48
2023/10/23 07:17:17;;;;;;;9.95;5.03;;;32.10;1.00;;;;;;5047643;28;20037;-50
2023/10/23 07:19:43;;;;;;;9.40;4.88;;;32.20;1.00;;;;;;5073982;28;20024;-50
2023/10/23 07:22:08;;;;;;;7.40;4.95;;;32.20;1.00;;;;;;5055058;28;20036;-53
2023/10/23 07:24:34;;;;;;;10.48;5.25;;;32.20;1.00;;;;;;5074176;28;20108;-49
2023/10/23 07:27:00;;;;;;;6.95;4.82;;;32.20;1.00;;;;;;5048193;28;20429;-66
2023/10/23 07:29:25;;;;;;;8.68;5.13;;;32.20;1.00;;;;;;5069258;28;20035;-65
2023/10/23 07:31:51;;;;;;;13.02;5.78;;;32.30;1.00;;;;;;5055748;28;20111;-68
2023/10/23 07:34:16;;;;;;;13.15;5.43;;;32.30;1.00;;;;;;5059766;28;20463;-78
2023/10/23 07:36:42;;;;;;;9.90;4.82;;;32.20;1.00;;;;;;5063851;28;20090;-74
2023/10/23 07:39:08;;;;;;;6.88;4.45;;;32.30;1.00;;;;;;5068843;28;20081;-72
2023/10/23 07:41:34;;;;;;;7.18;4.68;;;32.30;1.00;;;;;;5054635;28;20048;-71
2023/10/23 07:43:59;;;;;;;6.88;4.35;;;32.20;99.90;;;;;;5071838;28;20044;-69
2023/10/23 07:46:25;;;;;;;9.27;5.00;;;32.30;99.90;;;;;;5068341;28;20028;-70
2023/10/23 07:48:50;;;;;;;8.63;4.28;;;32.30;99.90;;;;;;5063476;28;20033;-69
2023/10/23 07:51:16;;;;;;;11.52;4.60;;;32.30;99.90;;;;;;5072981;28;20157;-69
2023/10/23 07:53:42;;;;;;;11.50;4.47;;;32.30;99.90;;;;;;5051761;28;20028;-69
2023/10/23 07:56:07;;;;;;;9.88;4.80;;;32.30;99.90;;;;;;5067936;28;20024;-67
2023/10/23 07:58:33;;;;;;;9.57;4.82;;;32.30;99.90;;;;;;5070569;28;20481;-56
2023/10/23 08:01:11;;;;;;;10.13;4.90;;;32.30;99.90;;;;;;5054353;28;20044;-59
2023/10/23 08:03:37;;;;;;;10.77;4.55;;;32.30;99.90;;;;;;5070361;28;20070;-60
2023/10/23 08:06:03;;;;;;;9.95;4.45;;;32.30;99.90;;;;;;5070140;28;20020;-62
2023/10/23 08:08:31;;;;;;;5.90;4.40;;;32.30;99.90;;;;;;5066423;28;20028;-66
2023/10/23 08:10:57;;;;;;;6.75;4.18;;;32.30;99.90;;;;;;5045506;28;20117;-60
2023/10/23 08:13:23;;;;;;;6.85;4.05;;;32.30;99.90;;;;;;5039133;28;20036;-60
2023/10/23 08:15:49;;;;;;;6.45;4.20;;;32.30;99.90;;;;;;5064971;28;20363;-62
2023/10/23 08:18:15;;;;;;;6.22;4.40;;;32.40;99.90;;;;;;5070492;28;20087;-62
2023/10/23 08:20:40;;;;;;;10.77;4.43;;;32.40;99.90;;;;;;5065998;28;20060;-60
2023/10/23 08:23:06;;;;;;;10.50;4.40;;;32.40;99.90;;;;;;5068799;28;20020;-63
2023/10/23 08:25:31;;;;;;;7.53;4.07;;;32.40;99.90;;;;;;5071635;28;20024;-63
2023/10/23 08:27:57;;;;;;;8.98;3.95;;;32.40;99.90;;;;;;5050367;28;20056;-71
2023/10/23 08:30:23;;;;;;;6.13;3.97;;;32.40;99.90;;;;;;5065466;28;20017;-68
2023/10/23 08:32:49;;;;;;;9.98;4.35;;;32.40;99.90;;;;;;5065202;28;20025;-79
2023/10/23 08:35:15;;;;;;;7.65;5.10;;;32.40;99.90;;;;;;5064571;28;20021;-73
2023/10/23 08:37:41;;;;;;;12.13;4.53;;;32.40;99.90;;;;;;5063992;28;20039;-63
2023/10/23 08:40:07;;;;;;;13.48;5.18;;;32.50;99.90;;;;;;5060929;28;20017;-63
2023/10/23 08:42:33;;;;;;;11.35;4.63;;;32.50;99.90;;;;;;5071912;28;20041;-57
2023/10/23 08:44:59;;;;;;;6.72;4.60;;;32.60;99.90;;;;;;5072679;28;20035;-63
2023/10/23 08:47:25;;;;;;;7.68;5.18;;;32.60;99.90;;;;;;5064937;28;20032;-55
2023/10/23 08:49:52;;;;;;;12.30;4.80;;;32.60;99.90;;;;;;5061226;28;20021;-59
2023/10/23 08:52:21;;;;;;;20.33;5.22;;;32.60;99.90;;;;;;5061978;28;20025;-61
2023/10/23 08:54:49;;;;;;;11.57;4.95;;;32.60;99.90;;;;;;5062689;28;20029;-65
2023/10/23 08:57:15;;;;;;;12.25;5.85;;;32.60;99.90;;;;;;5068440;28;20043;-59
2023/10/23 08:59:42;;;;;;;10.40;4.35;;;32.70;99.90;;;;;;5063317;28;20050;-54
2023/10/23 09:02:09;;;;;;;12.43;5.28;;;32.70;99.90;;;;;;5068312;28;20171;-53
2023/10/23 09:04:34;;;;;;;12.55;5.28;;;32.80;99.90;;;;;;5069778;28;20051;-54
2023/10/23 09:07:00;;;;;;;16.48;5.65;;;32.80;99.90;;;;;;5065206;28;20099;-53
2023/10/23 09:09:26;;;;;;;8.02;4.60;;;32.80;99.90;;;;;;5066729;28;20109;-65
2023/10/23 09:11:52;;;;;;;9.18;4.90;;;32.80;99.90;;;;;;5064029;28;20025;-62
2023/10/23 09:14:27;;;;;;;8.98;5.20;;;32.80;99.90;;;;;;5065348;28;20024;-68
2023/10/23 09:16:56;;;;;;;9.57;5.40;;;32.80;99.90;;;;;;5061705;28;20040;-63
2023/10/23 09:19:25;;;;;;;7.47;4.35;;;32.80;99.90;;;;;;5072090;28;20103;-65
2023/10/23 09:21:56;;;;;;;13.18;5.43;;;32.80;99.90;;;;;;5068291;28;20020;-66
2023/10/23 09:24:23;;;;;;;11.10;5.20;;;32.90;99.90;;;;;;5067926;28;20036;-57
2023/10/23 09:26:51;;;;;;;9.52;4.88;;;32.90;99.90;;;;;;5065643;28;20029;-57
2023/10/23 09:29:25;;;;;;;8.68;5.38;;;32.80;99.90;;;;;;5065240;28;20025;-62
2023/10/23 09:31:52;;;;;;;9.38;5.10;;;32.90;99.90;;;;;;5053855;28;20466;-61
2023/10/23 09:34:18;;;;;;;9.30;4.63;;;32.80;99.90;;;;;;5048949;28;20029;-63
2023/10/23 09:36:50;;;;;;;7.90;4.55;;;32.80;99.90;;;;;;5071875;28;20037;-65
2023/10/23 09:39:16;;;;;;;8.75;5.10;;;32.80;99.90;;;;;;5062700;28;20021;-66
2023/10/23 09:41:42;;;;;;;9.52;4.50;;;32.80;99.90;;;;;;5064722;28;20028;-62
2023/10/23 09:44:09;;;;;;;6.35;4.18;;;32.80;99.90;;;;;;5050214;28;20111;-66
2023/10/23 09:46:36;;;;;;;7.70;4.90;;;32.80;99.90;;;;;;5065712;28;20048;-62
2023/10/23 09:49:04;;;;;;;6.38;4.20;;;32.80;99.90;;;;;;5064085;28;20032;-60
2023/10/23 09:51:39;;;;;;;11.32;4.75;;;32.80;99.90;;;;;;5067770;28;20024;-66
2023/10/23 09:54:19;;;;;;;8.57;4.78;;;32.80;99.90;;;;;;5065189;28;20026;-68
2023/10/23 09:56:52;;;;;;;8.07;4.90;;;32.80;99.90;;;;;;5065053;28;20024;-61
2023/10/23 09:59:24;;;;;;;12.13;5.03;;;32.80;99.90;;;;;;5071892;28;20059;-61
2023/10/23 10:01:50;;;;;;;10.93;4.82;;;32.80;99.90;;;;;;5068418;28;20041;-65
2023/10/23 10:04:29;;;;;;;11.88;4.78;;;32.80;99.90;;;;;;5062299;28;20512;-72
2023/10/23 10:07:00;;;;;;;9.35;4.60;;;32.80;99.90;;;;;;5055775;28;20017;-64
2023/10/23 10:09:27;;;;;;;7.65;5.75;;;32.90;99.90;;;;;;5060045;28;20060;-67
2023/10/23 10:11:57;;;;;;;13.27;5.78;;;32.90;99.90;;;;;;5062875;28;20079;-68
2023/10/23 10:14:27;;;;;;;10.52;5.60;;;32.90;99.90;;;;;;5068906;28;20131;-50
2023/10/23 10:16:57;;;;;;;11.15;5.28;;;32.90;99.90;;;;;;5068475;28;20094;-53
2023/10/23 10:19:26;;;;;;;7.93;4.93;;;32.90;99.90;;;;;;5063748;28;20025;-55
2023/10/23 10:22:19;;;;;;;9.02;5.05;;;32.90;99.90;;;;;;5070544;28;20029;-60
2023/10/23 10:24:46;;;;;;;10.43;5.15;;;;;;;;;;5052754;28;20025;-54
2023/10/23 10:27:13;;;;;;;9.90;5.32;;;;;;;;;;5063273;28;20467;-47
2023/10/23 10:29:39;;;;;;;7.35;4.95;;;;;;;;;;5070461;28;20020;-50
2023/10/23 10:32:10;;;;;;;7.00;4.43;;;;;;;;;;5064479;28;20036;-62
2023/10/23 10:34:50;;;;;;;10.88;4.97;;;;;;;;;;5066329;28;20017;-61
2023/10/23 10:37:16;;;;;;;8.20;5.60;;;;;;;;;;5064979;28;20810;-67
2023/10/23 10:39:50;;;;;;;13.13;6.40;;;;;;;;;;5069646;28;20040;-66
2023/10/23 10:42:16;;;;;;;11.57;5.90;;;;;;;;;;5055845;28;20398;-63
2023/10/23 10:44:56;;;;;;;11.65;5.55;;;;;;;;;;5064310;28;20033;-59
2023/10/23 10:47:36;;;;;;;5.13;4.65;;;;;;;;;;5068730;28;20491;-60
2023/10/23 10:50:03;;;;;;;7.90;4.65;;;;;;;;;;5071071;28;20020;-63
2023/10/23 10:52:30;;;;;;;7.75;4.47;;;;;;;;;;5063239;28;20017;-60
2023/10/23 10:54:56;;;;;;;9.65;4.50;;;;;;;;;;5067393;28;20031;-60
2023/10/23 10:57:22;;;;;;;7.85;4.50;;;;;;;;;;5056549;28;20040;-61
2023/10/23 10:59:54;;;;;;;7.13;4.88;;;;;;;;;;5063331;28;20108;-63
2023/10/23 11:02:20;;;;;;;8.85;5.45;;;;;;;;;;5065974;28;20137;-62
2023/10/23 11:04:47;;;;;;;7.60;4.85;;;;;;;;;;5061866;28;20435;-61
2023/10/23 11:07:13;;;;;;;7.03;5.35;;;;;;;;;;5059049;28;20055;-64
2023/10/23 11:09:41;;;;;;;9.93;6.20;;;;;;;;;;5059480;28;20033;-59
2023/10/23 11:12:07;;;;;;;9.63;5.53;;;;;;;;;;5061891;28;20194;-59
2023/10/23 11:14:33;;;;;;;13.10;7.45;;;;;;;;;;5065945;28;20032;-59
2023/10/23 11:16:59;;;;;;;9.77;6.07;;;;;;;;;;5070129;28;20063;-60
2023/10/23 11:19:25;;;;;;;19.80;12.40;;;;;;;;;;5062339;28;20040;-50
2023/10/23 11:22:06;;;;;;;15.60;9.77;;;;;;;;;;5058323;28;20029;-62
2023/10/23 11:24:32;;;;;;;13.07;6.70;;;;;;;;;;5069123;28;20025;-67
2023/10/23 11:26:58;;;;;;;13.15;6.20;;;;;;;;;;5063254;28;20042;-62
2023/10/23 11:29:24;;;;;;;11.00;5.72;;;;;;;;;;5064654;28;20082;-64
2023/10/23 15:04:17;;;;;;;12.48;5.70;;;;;;;;;;5047184;28;20137;-66
2023/10/23 15:06:43;;;;;;;14.43;5.78;;;;;;;;;;5070749;28;20024;-66
2023/10/23 15:09:09;;;;;;;11.02;5.07;;;;;;;;;;5067609;28;20029;-68
2023/10/23 15:11:35;;;;;;;10.07;5.25;;;;;;;;;;5057018;28;20124;-67
2023/10/23 15:14:10;;;;;;;9.18;5.80;;;;;;;;;;5063625;28;20020;-67
2023/10/23 15:16:37;;;;;;;12.13;7.05;;;;;;;;;;5058602;28;20087;-69
2023/10/23 15:19:03;;;;;;;11.73;7.00;;;;;;;;;;5052744;28;20036;-68
2023/10/23 15:21:29;;;;;;;9.80;5.93;;;;;;;;;;5074802;28;20465;-68
2023/10/23 15:23:55;;;;;;;14.35;5.75;;;;;;;;;;5056269;28;20029;-61
2023/10/23 15:26:21;;;;;;;11.63;5.75;;;;;;;;;;5058945;28;20033;-63
2023/10/23 15:28:49;;;;;;;9.38;6.07;;;32.90;99.90;;;;;;5066912;28;20028;-63
2023/10/23 15:31:15;;;;;;;11.98;6.70;;;32.90;99.90;;;;;;5056255;28;20020;-63
2023/10/23 15:33:40;;;;;;;13.18;6.63;;;32.80;99.90;;;;;;5055644;28;20028;-63
2023/10/23 15:36:06;;;;;;;13.68;6.53;;;32.90;99.90;;;;;;5074141;28;20021;-63
2023/10/23 15:38:33;;;;;;;11.90;6.13;;;33.00;99.90;;;;;;5065747;28;20191;-72
2023/10/23 15:41:06;;;;;;;13.43;6.20;;;33.00;99.90;;;;;;5074488;28;20123;-80
2023/10/23 15:43:44;;;;;;;10.95;5.88;;;32.90;99.90;;;;;;5071946;28;20039;-71
2023/10/23 15:46:12;;;;;;;7.88;4.72;;;33.00;99.90;;;;;;5053540;28;20036;-68
2023/10/23 15:48:38;;;;;;;9.32;4.80;;;33.00;99.90;;;;;;5063003;28;20063;-67
2023/10/23 15:51:04;;;;;;;10.63;5.07;;;33.00;99.90;;;;;;5052090;28;20114;-62
2023/10/23 15:53:29;;;;;;;12.25;5.07;;;32.90;99.90;;;;;;5064543;28;20031;-67
2023/10/23 15:56:00;;;;;;;11.85;5.28;;;32.90;99.90;;;;;;5049108;28;20025;-67
2023/10/23 15:58:26;;;;;;;9.48;5.35;;;32.80;99.90;;;;;;5058121;28;20397;-64
2023/10/23 16:00:54;;;;;;;10.85;5.32;;;32.80;1.00;;;;;;5070289;28;20038;-59
2023/10/23 16:03:20;;;;;;;10.35;4.88;;;32.60;1.00;;;;;;5071855;28;20012;-58
2023/10/23 16:05:46;;;;;;;7.53;4.57;;;32.60;1.00;;;;;;5073485;28;20052;-59
2023/10/23 16:08:12;;;;;;;9.95;5.10;;;32.50;1.00;;;;;;5074429;28;20020;-61
2023/10/23 16:10:43;;;;;;;9.48;5.13;;;32.50;1.00;;;;;;5073539;28;20055;-59
2023/10/23 16:13:11;;;;;;;9.38;5.75;;;32.60;1.00;;;;;;5058979;28;20064;-61
2023/10/23 16:15:37;;;;;;;8.27;4.55;;;32.50;1.00;;;;;;5055634;28;20029;-60
2023/10/23 16:18:04;;;;;;;8.73;4.85;;;32.50;1.00;;;;;;5073375;28;20032;-59
2023/10/23 16:20:32;;;;;;;8.40;4.22;;;32.50;99.90;;;;;;5061763;28;20446;-64
2023/10/23 16:22:59;;;;;;;8.48;4.97;;;32.50;99.90;;;;;;5067851;28;20040;-66
2023/10/23 16:25:25;;;;;;;6.10;5.03;;;32.50;1.00;;;;;;5073297;28;20030;-60
2023/10/23 16:27:54;;;;;;;6.88;4.93;;;32.60;1.00;;;;;;5073601;28;20024;-69
2023/10/23 16:30:21;;;;;;;9.55;4.90;;;32.60;1.00;;;;;;5073736;28;20025;-65
2023/10/23 16:32:46;;;;;;;11.82;6.78;;;32.70;1.00;;;;;;5073115;28;20020;-65
2023/10/23 16:35:12;;;;;;;6.55;5.10;;;32.60;1.00;;;;;;5038512;28;20111;-65
2023/10/23 16:37:38;;;;;;;9.15;5.40;;;32.60;1.00;;;;;;5054026;28;20040;-68
2023/10/23 16:40:04;;;;;;;8.68;5.88;;;32.60;1.00;;;;;;5068854;28;20054;-62
2023/10/23 16:42:30;;;;;;;13.00;5.78;;;32.70;1.00;;;;;;5073260;28;20490;-64
2023/10/23 16:44:55;;;;;;;7.22;4.70;;;32.70;1.00;;;;;;5043373;28;20031;-63
2023/10/23 16:47:21;;;;;;;7.43;4.68;;;32.70;1.00;;;;;;5058935;28;20032;-63
2023/10/23 16:49:47;;;;;;;12.65;5.18;;;32.60;1.00;;;;;;5068352;28;20035;-53
2023/10/23 16:52:14;;;;;;;9.27;5.75;;;32.70;1.00;;;;;;5068061;28;20028;-53
2023/10/23 16:54:40;;;;;;;16.33;8.10;;;32.60;1.00;;;;;;5064382;28;20426;-64
2023/10/23 16:57:06;;;;;;;14.38;9.60;;;32.60;1.00;;;;;;5060804;28;20041;-64
2023/10/23 16:59:32;;;;;;;11.15;7.25;;;32.70;1.00;;;;;;5071989;28;20032;-62
2023/10/23 17:01:57;;;;;;;9.07;6.05;;;32.70;1.00;;;;;;5062956;28;20433;-63
2023/10/23 17:04:31;;;;;;;10.27;6.75;;;32.70;1.00;;;;;;5067216;28;20021;-63
2023/10/23 17:06:57;;;;;;;8.85;6.28;;;32.60;99.90;;;;;;5052603;28;20052;-64
2023/10/23 17:09:22;;;;;;;7.90;5.32;;;32.70;1.00;;;;;;5052972;28;20028;-63
2023/10/23 17:11:48;;;;;;;6.70;5.18;;;32.60;1.00;;;;;;5052655;28;20020;-63
2023/10/23 17:14:14;;;;;;;8.15;4.50;;;32.70;1.00;;;;;;5052355;28;20052;-64
2023/10/23 17:16:39;;;;;;;5.80;3.95;;;32.70;1.00;;;;;;5042927;28;20115;-64
2023/10/23 17:19:05;;;;;;;6.28;4.18;;;32.60;99.90;;;;;;5047861;28;20048;-63
2023/10/23 17:21:31;;;;;;;8.73;4.45;;;32.70;99.90;;;;;;5052237;28;20021;-64
2023/10/23 17:23:57;;;;;;;8.98;4.78;;;32.60;99.90;;;;;;5052308;28;20021;-64
2023/10/23 17:26:22;;;;;;;11.65;5.20;;;32.60;99.90;;;;;;5051237;28;20466;-64
2023/10/23 17:28:48;;;;;;;7.10;4.20;;;32.60;99.90;;;;;;5052652;28;20036;-64
2023/10/23 17:31:14;;;;;;;9.68;4.20;;;32.60;99.90;;;;;;5052658;28;20013;-64
2023/10/23 17:33:39;;;;;;;9.20;4.88;;;32.60;99.90;;;;;;5052438;28;20087;-64
2023/10/23 17:36:05;;;;;;;8.23;4.70;;;32.70;99.90;;;;;;5050462;28;20430;-68
2023/10/23 17:38:31;;;;;;;8.73;4.50;;;32.70;99.90;;;;;;5040140;28;20363;-66
2023/10/23 17:40:57;;;;;;;6.07;4.97;;;32.60;99.90;;;;;;5052561;28;20079;-68
2023/10/23 17:43:23;;;;;;;8.85;6.22;;;32.70;99.90;;;;;;5037014;28;20041;-67
2023/10/23 17:45:49;;;;;;;7.97;5.63;;;32.70;99.90;;;;;;5052205;28;20021;-64
2023/10/23 17:48:15;;;;;;;9.23;5.10;;;32.60;99.90;;;;;;5052075;28;20036;-64
2023/10/23 17:50:40;;;;;;;9.60;5.20;;;32.60;1.00;;;;;;5048272;28;20021;-64
2023/10/23 17:53:06;;;;;;;8.00;5.43;;;32.60;99.90;;;;;;5035770;28;20449;-65
2023/10/23 17:55:33;;;;;;;7.38;4.57;;;32.50;1.00;;;;;;5037329;28;20075;-64
2023/10/23 17:57:59;;;;;;;8.52;5.22;;;32.50;1.00;;;;;;5048348;28;20048;-65
2023/10/23 18:00:27;;;;;;;8.90;5.68;;;32.50;1.00;;;;;;5049737;28;20486;-65
2023/10/23 18:02:55;;;;;;;11.50;5.63;;;32.50;1.00;;;;;;5045298;28;20540;-64
2023/10/23 18:05:21;;;;;;;7.68;5.28;;;32.50;1.00;;;;;;5057656;28;20484;-64
2023/10/23 18:07:46;;;;;;;6.55;5.07;;;32.50;1.00;;;;;;5058750;28;20028;-64
2023/10/23 18:10:13;;;;;;;7.63;4.90;;;32.50;1.00;;;;;;5069381;28;20021;-64
2023/10/23 18:12:39;;;;;;;8.05;4.55;;;32.50;1.00;;;;;;5068373;28;20040;-64
2023/10/23 18:15:06;;;;;;;6.35;4.90;;;32.50;1.00;;;;;;5071356;28;20028;-64
2023/10/23 18:17:31;;;;;;;10.07;4.75;;;32.50;1.00;;;;;;5052094;28;20032;-64
2023/10/23 18:19:57;;;;;;;5.55;4.78;;;32.40;1.00;;;;;;5062096;28;20024;-64
2023/10/23 18:22:23;;;;;;;9.90;6.78;;;32.50;1.00;;;;;;5072530;28;20075;-64
2023/10/23 18:24:52;;;;;;;7.80;5.28;;;32.50;1.00;;;;;;5071245;28;20047;-64
2023/10/23 18:27:18;;;;;;;8.60;5.57;;;32.50;99.90;;;;;;5053624;28;20044;-63